Airfield :
LOGIN :

Register | Disclaimer

   EN    FR    IT 

 










Legend :    VFR   Marginal VFR   IFR   Intensive IFR   Very Intensive IFR
Visi :
Ceiling :
>= 8 km
>= 3000ft
5 to 8 km
1000 to 3000 ft
1500m to 5 km
500 to 1000 ft
800 to 1500m
200 to 500 ft
< 800m
< 200 ft
Symbols :   Thunderstorms  Fog  Heavy snow  Heavy precipitations  Wind > 20 kt
SIGMETs :     Misc.  Thunderstorms  Icing  Turbulence  Mountain Waves  Volcanic Ashes






- Airport Elevation : 39 ft


ETNH - Hohn AB

CURRENT METAR :
  • 301720Z 04011KT 9999 FEW050 05/M06 Q1026 BLU+BLU+

EXPIRED METARs :
  • 301620Z 04016KT 9999 FEW050 06/M07 Q1026 BLU+BLU+
  • 301520Z 04015KT 9999 FEW040 07/M05 Q1025 BLU+BLU+

TAF TAF ETNH
Valid from the 30 at 17:00 until the 31 at 05:00 UTC


301600Z 3017/3105 04012G22KT 9999 NSW SCT040
BECMG 3018/3020 05005KT 9999 NSW SKC BY ETGL



MET'MAP, your aeronautical weather chart ! - Copyright ORBIFLY December 2007 - Disclaimer

ORBIFLY MET'MAP TEAM :

Programming & Development : Alexandra Zaïnal
Concept & original design : Baudouin d'Aumeries
Assistance for programming : Marc-Olivier Méhu
Technical & hardware support : Manuel Goepfert

Contact : metmap@orbifly.com




SOURCES & CREDITS :

   NOAA